Time;durP1;ratioP1;P1;durP2;ratioP2;P2;SDS_P1;SDS_P2;PMS_P1;PMS_P2;Temp;Humidity;BMP_temperature;BMP_pressure;BME280_temperature;BME280_humidity;BME280_pressure;Samples;Min_cycle;Max_cycle;Signal;HPM_P1;HPM_P2
2023/01/13 00:01:56;;;;;;;;;;;;;;;;;;5077166;28;6976;-68
2023/01/13 00:04:23;;;;;;;;;;;;;;;;;;5078100;28;9404;-68
2023/01/13 00:06:49;;;;;;;;;;;;;;;;;;5077404;28;6934;-68
2023/01/13 00:09:35;;;;;;;;;;;;;;;;;;5077376;28;6848;-69
2023/01/13 00:12:00;;;;;;;;;;;;;;;;;;5077826;28;7335;-68
2023/01/13 00:14:28;;;;;;;;;;;;;;;;;;5076878;28;6947;-68
2023/01/13 00:17:12;;;;;;;;;;;;;;;;;;5077241;28;7197;-68
2023/01/13 00:19:38;;;;;;;;;;;;;;;;;;5078300;28;7389;-68
2023/01/13 00:22:05;;;;;;;;;;;;;;;;;;5077133;28;7080;-68
2023/01/13 00:24:31;;;;;;;;;;;;;;;;;;5077015;28;7310;-69
2023/01/13 00:26:56;;;;;;;;;;;;;;;;;;5059126;28;8489;-68
2023/01/13 00:29:28;;;;;;;;;;;;;;;;;;5076578;28;8377;-68
2023/01/13 00:31:54;;;;;;;;;;;;;;;;;;5076794;28;7157;-68
2023/01/13 00:34:19;;;;;;;;;;;;;;;;;;5070846;28;7065;-68
2023/01/13 00:37:11;;;;;;;;;;;;;;;;;;5076539;28;6930;-68
2023/01/13 00:39:37;;;;;;;;;;;;;;;;;;5077289;28;7223;-68
2023/01/13 00:44:52;;;;;;;;;;;;;;;;;;5076791;28;6991;-68
2023/01/13 00:47:18;;;;;;;;;;;;;;;;;;5076684;28;6955;-68
2023/01/13 00:52:53;;;;;;;;;;;;;;;;;;5076317;28;6919;-68
2023/01/13 00:55:45;;;;;;;;;;;;;;;;;;5075724;28;7133;-68
2023/01/13 00:58:11;;;;;;;;;;;;;;;;;;5076100;28;7146;-68
2023/01/13 01:00:51;;;;;;;;;;;;;;;;;;5076304;28;7337;-68
2023/01/13 01:03:17;;;;;;;;;;;;;;;;;;5076248;28;7162;-68
2023/01/13 01:05:42;;;;;;;;;;;;;;;;;;5076215;28;7142;-69
2023/01/13 01:08:08;;;;;;;;;;;;;;;;;;5076186;28;7069;-69
2023/01/13 01:10:35;;;;;;;;;;;;;;;;;;5076138;28;7101;-69
2023/01/13 01:13:01;;;;;;;;;;;;;;;;;;5076046;28;7397;-68
2023/01/13 01:15:26;;;;;;;;;;;;;;;;;;5075778;28;7258;-69
2023/01/13 01:17:52;;;;;;;;;;;;;;;;;;5076005;28;6938;-69
2023/01/13 01:20:17;;;;;;;;;;;;;;;;;;5076057;28;7184;-69
2023/01/13 01:22:43;;;;;;;;;;;;;;;;;;5075868;28;7196;-68
2023/01/13 01:25:24;;;;;;;;;;;;;;;;;;5075867;28;6963;-69
2023/01/13 01:27:50;;;;;;;;;;;;;;;;;;5075870;28;7338;-69
2023/01/13 01:30:15;;;;;;;;;;;;;;;;;;5075774;28;7279;-69
2023/01/13 01:35:44;;;;;;;;;;;;;;;;;;5075525;28;6924;-69
2023/01/13 01:41:14;;;;;;;;;;;;;;;;;;5075429;28;6689;-69
2023/01/13 01:46:34;;;;;;;;;;;;;;;;;;5075613;28;6987;-69
2023/01/13 01:49:05;;;;;;;;;;;;;;;;;;5050771;28;7356;-68
2023/01/13 01:52:04;;;;;;;;;;;;;;;;;;5055325;28;7191;-69
2023/01/13 01:54:37;;;;;;;;;;;;;;;;;;5054622;28;7333;-69
2023/01/13 01:57:05;;;;;;;;;;;;;;;;;;5054871;28;7183;-68
2023/01/13 01:59:33;;;;;;;;;;;;;;;;;;5054672;28;8061;-68
2023/01/13 02:01:59;;;;;;;;;;;;;;;;;;5055175;28;7148;-68
2023/01/13 02:04:29;;;;;;;;;;;;;;;;;;5055136;28;7026;-68
2023/01/13 02:06:56;;;;;;;;;;;;;;;;;;5054223;28;6992;-69
2023/01/13 02:09:24;;;;;;;;;;;;;;;;;;5055010;28;7180;-68
2023/01/13 02:14:35;;;;;;;;;;;;;;;;;;5055570;28;6812;-69
2023/01/13 02:17:00;;;;;;;;;;;;;;;;;;5054722;28;7111;-69
2023/01/13 02:19:44;;;;;;;;;;;;;;;;;;5055331;28;7142;-69
2023/01/13 02:22:21;;;;;;;;;;;;;;;;;;5054960;28;7018;-69
2023/01/13 02:25:08;;;;;;;;;;;;;;;;;;5054680;28;6979;-69
2023/01/13 02:27:53;;;;;;;;;;;;;;;;;;5054815;28;7075;-69
2023/01/13 02:33:14;;;;;;;;;;;;;;;;;;5055044;28;6795;-70
2023/01/13 02:35:51;;;;;;;;;;;;;;;;;;5054606;28;7216;-69
2023/01/13 02:44:18;;;;;;;;;;;;;;;;;;5067255;28;6797;-69
2023/01/13 02:46:56;;;;;;;;;;;;;;;;;;5074592;28;7036;-69
2023/01/13 02:49:28;;;;;;;;;;;;;;;;;;5074275;28;7385;-69
2023/01/13 02:51:59;;;;;;;;;;;;;;;;;;5074425;28;7438;-70
2023/01/13 02:54:28;;;;;;;;;;;;;;;;;;5074741;28;7171;-69
2023/01/13 02:56:57;;;;;;;;;;;;;;;;;;5074488;28;6943;-69
2023/01/13 02:59:25;;;;;;;;;;;;;;;;;;5074547;28;7204;-69
2023/01/13 03:01:53;;;;;;;;;;;;;;;;;;5074340;28;7413;-69
2023/01/13 03:04:37;;;;;;;;;;;;;;;;;;5074574;28;6976;-69
2023/01/13 03:07:12;;;;;;;;;;;;;;;;;;5074372;28;7310;-69
2023/01/13 03:09:48;;;;;;;;;;;;;;;;;;5074414;28;7433;-69
2023/01/13 03:12:28;;;;;;;;;;;;;;;;;;5074274;28;6953;-69
2023/01/13 03:14:53;;;;;;;;;;;;;;;;;;5057470;28;7007;-69
2023/01/13 03:17:28;;;;;;;;;;;;;;;;;;5072920;28;7168;-69
2023/01/13 03:23:07;;;;;;;;;;;;;;;;;;5077931;28;7064;-69
2023/01/13 03:25:40;;;;;;;;;;;;;;;;;;5078181;28;7382;-69
2023/01/13 03:31:04;;;;;;;;;;;;;;;;;;5078494;28;6795;-69
2023/01/13 03:33:34;;;;;;;;;;;;;;;;;;5077668;28;7156;-69
2023/01/13 03:39:07;;;;;;;;;;;;;;;;;;5077666;28;6688;-69
2023/01/13 03:41:42;;;;;;;;;;;;;;;;;;5077900;28;6831;-69
2023/01/13 03:47:05;;;;;;;;;;;;;;;;;;5078777;28;6957;-69
2023/01/13 03:49:36;;;;;;;;;;;;;;;;;;5077588;28;7139;-69
2023/01/13 03:52:21;;;;;;;;;;;;;;;;;;5077853;28;7168;-69
2023/01/13 03:54:51;;;;;;;;;;;;;;;;;;5077442;28;6982;-69
2023/01/13 03:57:20;;;;;;;;;;;;;;;;;;5099267;23;7139;-69
2023/01/13 04:02:53;;;;;;;;;;;;;;;;;;5057052;28;6986;-69
2023/01/13 04:05:19;;;;;;;;;;;;;;;;;;5057134;28;7156;-69
2023/01/13 04:07:52;;;;;;;;;;;;;;;;;;5058069;28;7024;-69
2023/01/13 04:10:22;;;;;;;;;;;;;;;;;;5057876;28;7416;-69
2023/01/13 04:15:51;;;;;;;;;;;;;;;;;;5057315;28;6696;-69
2023/01/13 04:18:24;;;;;;;;;;;;;;;;;;5057522;28;7106;-69
2023/01/13 04:21:02;;;;;;;;;;;;;;;;;;5057173;28;7319;-69
2023/01/13 04:26:30;;;;;;;;;;;;;;;;;;5056456;28;6676;-69
2023/01/13 04:28:56;;;;;;;;;;;;;;;;;;5056155;28;7180;-69
2023/01/13 04:31:21;;;;;;;;;;;;;;;;;;5056427;28;7115;-69
2023/01/13 04:33:47;;;;;;;;;;;;;;;;;;5057630;28;7155;-69
2023/01/13 04:36:12;;;;;;;;;;;;;;;;;;5056798;28;7296;-73
2023/01/13 04:38:38;;;;;;;;;;;;;;;;;;5056769;28;7017;-69
2023/01/13 04:41:03;;;;;;;;;;;;;;;;;;5056634;28;7174;-68
2023/01/13 04:43:29;;;;;;;;;;;;;;;;;;5043244;28;7213;-67
2023/01/13 04:46:23;;;;;;;;;;;;;;;;;;5041547;28;6964;-71
2023/01/13 04:48:48;;;;;;;;;;;;;;;;;;5038963;28;8479;-71
2023/01/13 04:54:16;;;;;;;;;;;;;;;;;;5062773;28;6751;-68
2023/01/13 04:56:42;;;;;;;;;;;;;;;;;;5074537;28;7130;-68
2023/01/13 04:59:12;;;;;;;;;;;;;;;;;;5076356;28;7437;-71
2023/01/13 05:01:38;;;;;;;;;;;;;;;;;;5076299;28;7062;-71
2023/01/13 05:04:05;;;;;;;;;;;;;;;;;;5058284;28;8530;-71
2023/01/13 05:27:13;;;;;;;;;;;;;;;;;;5055945;28;6707;-68
2023/01/13 05:29:38;;;;;;;;;;;;;;;;;;5055801;28;7170;-68
2023/01/13 05:32:06;;;;;;;;;;;;;;;;;;5055732;28;6947;-68
2023/01/13 05:34:32;;;;;;;;;;;;;;;;;;5055696;28;7140;-68
2023/01/13 05:37:12;;;;;;;;;;;;;;;;;;5055755;28;7145;-68
2023/01/13 05:45:31;;;;;;;;;;;;;;;;;;5055482;28;6751;-71
2023/01/13 05:48:27;;;;;;;;;;;;;;;;;;5060879;28;6998;-71
2023/01/13 05:50:52;;;;;;;;;;;;;;;;;;5057273;28;8670;-71
2023/01/13 05:53:27;;;;;;;;;;;;;;;;;;5067526;28;6784;-71
2023/01/13 05:56:02;;;;;;;;;;;;;;;;;;5055180;28;7120;-71
2023/01/13 05:58:28;;;;;;;;;;;;;;;;;;5055302;28;7214;-71
2023/01/13 06:00:59;;;;;;;;;;;;;;;;;;5063365;28;7119;-71
2023/01/13 06:12:48;;;;;;;;;;;;;;;;;;5074772;28;6901;-71
2023/01/13 06:15:27;;;;;;;;;;;;;;;;;;5075004;28;7619;-71
2023/01/13 06:17:53;;;;;;;;;;;;;;;;;;5068952;28;6977;-71
2023/01/13 06:20:18;;;;;;;;;;;;;;;;;;5074819;28;7456;-71
2023/01/13 06:28:50;;;;;;;;;;;;;;;;;;5074530;28;7426;-71
2023/01/13 06:31:16;;;;;;;;;;;;;;;;;;5074740;28;7198;-71
2023/01/13 06:33:48;;;;;;;;;;;;;;;;;;5074969;28;7334;-71
2023/01/13 06:36:24;;;;;;;;;;;;;;;;;;5074349;28;7366;-71
2023/01/13 06:44:38;;;;;;;;;;;;;;;;;;5075069;28;6794;-76
2023/01/13 06:47:23;;;;;;;;;;;;;;;;;;5074637;28;7234;-70
2023/01/13 06:49:49;;;;;;;;;;;;;;;;;;5074528;28;7146;-69
2023/01/13 06:55:23;;;;;;;;;;;;;;;;;;5078208;28;6933;-69
2023/01/13 07:00:52;;;;;;;;;;;;;;;;;;5078466;28;6697;-68
2023/01/13 07:03:18;;;;;;;;;;;;;;;;;;5077864;28;7151;-69
2023/01/13 07:05:53;;;;;;;;;;;;;;;;;;5059826;28;7067;-69
2023/01/13 07:08:18;;;;;;;;;;;;;;;;;;5078302;28;6798;-69
2023/01/13 07:10:53;;;;;;;;;;;;;;;;;;5078400;28;7030;-69
2023/01/13 07:16:27;;;;;;;;;;;;;;;;;;5058518;28;7011;-68
2023/01/13 07:18:56;;;;;;;;;;;;;;;;;;5058463;28;7420;-68
2023/01/13 07:21:26;;;;;;;;;;;;;;;;;;5058059;28;6998;-68
2023/01/13 07:23:51;;;;;;;;;;;;;;;;;;5058322;28;7369;-68
2023/01/13 07:26:17;;;;;;;;;;;;;;;;;;5071351;28;6957;-68
2023/01/13 07:28:42;;;;;;;;;;;;;;;;;;5060385;28;8396;-68
2023/01/13 07:31:34;;;;;;;;;;;;;;;;;;5077895;28;7090;-68
2023/01/13 07:33:59;;;;;;;;;;;;;;;;;;5078089;28;6827;-68
2023/01/13 07:36:25;;;;;;;;;;;;;;;;;;5078024;28;7336;-69
2023/01/13 07:39:08;;;;;;;;;;;;;;;;;;5078126;28;7042;-69
2023/01/13 07:44:27;;;;;;;;;;;;;;;;;;5077791;28;7529;-68
2023/01/13 07:49:44;;;;;;;;;;;;;;;;;;5076872;28;6985;-68
2023/01/13 07:52:26;;;;;;;;;;;;;;;;;;5077502;28;7067;-70
2023/01/13 07:54:52;;;;;;;;;;;;;;;;;;5077762;28;6988;-70
2023/01/13 07:57:17;;;;;;;;;;;;;;;;;;5073261;28;7143;-70
2023/01/13 08:00:09;;;;;;;;;;;;;;;;;;5077647;28;7426;-70
2023/01/13 08:02:34;;;;;;;;;;;;;;;;;;5077651;28;7569;-69
2023/01/13 08:05:00;;;;;;;;;;;;;;;;;;5077126;28;7136;-69
2023/01/13 08:07:25;;;;;;;;;;;;;;;;;;5077410;28;7041;-69
2023/01/13 08:09:51;;;;;;;;;;;;;;;;;;5077775;28;7186;-69
2023/01/13 08:15:38;;;;;;;;;;;;;;;;;;5057076;28;6925;-70
2023/01/13 08:18:03;;;;;;;;;;;;;;;;;;5057985;28;7610;-70
2023/01/13 08:20:29;;;;;;;;;;;;;;;;;;5057136;28;7591;-70
2023/01/13 08:23:05;;;;;;;;;;;;;;;;;;5057462;28;7179;-69
2023/01/13 08:25:31;;;;;;;;;;;;;;;;;;5056959;28;6790;-69
2023/01/13 08:31:04;;;;;;;;;;;;;;;;;;5056669;28;6702;-68
2023/01/13 08:36:32;;;;;;;;;;;;;;;;;;5056624;28;6690;-68
2023/01/13 08:38:58;;;;;;;;;;;;;;;;;;5057699;28;6973;-68
2023/01/13 08:44:08;;;;;;;;;;;;;;;;;;5056863;28;6921;-69
2023/01/13 08:46:34;;;;;;;;;;;;;;;;;;5056684;28;7138;-69
2023/01/13 08:49:04;;;;;;;;;;;;;;;;;;5056353;28;6921;-69
2023/01/13 08:51:30;;;;;;;;;;;;;;;;;;5056379;28;7627;-69
2023/01/13 08:53:55;;;;;;;;;;;;;;;;;;5056554;28;7065;-69
2023/01/13 08:56:44;;;;;;;;;;;;;;;;;;5056350;28;7013;-69
2023/01/13 09:02:11;;;;;;;;;;;;;;;;;;5036600;28;6911;-68
2023/01/13 09:04:37;;;;;;;;;;;;;;;;;;5036413;28;7139;-68
2023/01/13 09:07:03;;;;;;;;;;;;;;;;;;5036315;28;7113;-68
2023/01/13 09:09:28;;;;;;;;;;;;;;;;;;5035981;28;7389;-69
2023/01/13 09:14:46;;;;;;;;;;;;;;;;;;5036970;28;6798;-69
2023/01/13 09:17:11;;;;;;;;;;;;;;;;;;5055584;28;7200;-69
2023/01/13 09:19:37;;;;;;;;;;;;;;;;;;5055969;28;7325;-68
2023/01/13 09:22:03;;;;;;;;;;;;;;;;;;5055886;28;7328;-68
2023/01/13 09:24:29;;;;;;;;;;;;;;;;;;5055816;28;7414;-68
2023/01/13 09:26:55;;;;;;;;;;;;;;;;;;5055639;28;7201;-68
2023/01/13 09:29:20;;;;;;;;;;;;;;;;;;5055527;28;7110;-69
2023/01/13 09:31:58;;;;;;;;;;;;;;;;;;5038374;28;7174;-69
2023/01/13 09:37:08;;;;;;;;;;;;;;;;;;5056123;28;6943;-69
2023/01/13 09:39:35;;;;;;;;;;;;;;;;;;5055667;28;6923;-69
2023/01/13 09:45:15;;;;;;;;;;;;;;;;;;5055368;28;6937;-69
2023/01/13 09:50:46;;;;;;;;;;;;;;;;;;5055188;28;7045;-69
2023/01/13 09:53:38;;;;;;;;;;;;;;;;;;5055369;28;7171;-69
2023/01/13 09:56:04;;;;;;;;;;;;;;;;;;5055344;28;7210;-69
2023/01/13 09:58:29;;;;;;;;;;;;;;;;;;5069520;28;7222;-69
2023/01/13 10:01:15;;;;;;;;;;;;;;;;;;5075230;28;7104;-69
2023/01/13 10:03:41;;;;;;;;;;;;;;;;;;5075146;28;7440;-69
2023/01/13 10:06:14;;;;;;;;;;;;;;;;;;5075332;28;7173;-68
2023/01/13 10:09:01;;;;;;;;;;;;;;;;;;5075127;28;7058;-68
2023/01/13 10:17:29;;;;;;;;;;;;;;;;;;5075178;28;6683;-68
2023/01/13 10:23:04;;;;;;;;;;;;;;;;;;5074665;28;6684;-68
2023/01/13 10:25:59;;;;;;;;;;;;;;;;;;5074814;28;7101;-69
2023/01/13 10:28:25;;;;;;;;;;;;;;;;;;5074440;28;7342;-69
2023/01/13 10:31:09;;;;;;;;;;;;;;;;;;5074781;28;7030;-68
2023/01/13 10:37:01;;;;;;;;;;;;;;;;;;5074837;28;6691;-68
2023/01/13 10:45:24;;;;;;;;;;;;;;;;;;5074671;28;6941;-68
2023/01/13 10:50:48;;;;;;;;;;;;;;;;;;5074530;28;6879;-68
2023/01/13 10:56:17;;;;;;;;;;;;;;;;;;5074397;28;6687;-68
2023/01/13 10:58:43;;;;;;;;;;;;;;;;;;5154925;23;7378;-66
2023/01/13 11:07:31;;;;;;;;;;;;;;;;;;5014651;28;6682;-66
2023/01/13 11:10:19;;;;;;;;;;;;;;;;;;5053641;23;7188;-66
2023/01/13 11:22:07;;;;;;;;;;;;;;;;;;5014718;28;6763;-66
2023/01/13 11:30:31;;;;;;;;;;;;;;;;;;5014703;28;6786;-66
2023/01/13 11:36:21;;;;;;;;;;;;;;;;;;5014652;28;6922;-66
2023/01/13 11:38:55;;;;;;;;;;;;;;;;;;5014855;28;7429;-66
2023/01/13 11:47:22;;;;;;;;;;;;;;;;;;5018121;28;6784;-66
2023/01/13 11:49:48;;;;;;;;;;;;;;;;;;4997550;28;7263;-63
2023/01/13 11:52:49;;;;;;;;;;;;;;;;;;4998095;28;7038;-65
2023/01/13 11:55:34;;;;;;;;;;;;;;;;;;4998261;28;7395;-66
2023/01/13 12:07:27;;;;;;;;;;;;;;;;;;4997736;28;6698;-65
2023/01/13 12:09:52;;;;;;;;;;;;;;;;;;4997333;28;10892;-65
2023/01/13 12:12:31;;;;;;;;;;;;;;;;;;5014597;28;7156;-65
2023/01/13 12:18:29;;;;;;;;;;;;;;;;;;5017319;28;6896;-65
2023/01/13 12:21:00;;;;;;;;;;;;;;;;;;5017471;28;7183;-65
2023/01/13 12:23:31;;;;;;;;;;;;;;;;;;5017273;28;7231;-66
2023/01/13 12:26:05;;;;;;;;;;;;;;;;;;5017051;28;7037;-65
2023/01/13 12:28:44;;;;;;;;;;;;;;;;;;5017032;28;7055;-66
2023/01/13 12:34:31;;;;;;;;;;;;;;;;;;5016828;28;6924;-65
2023/01/13 12:37:15;;;;;;;;;;;;;;;;;;5017320;28;7120;-65
2023/01/13 12:39:43;;;;;;;;;;;;;;;;;;5016599;28;8435;-65
2023/01/13 13:00:07;;;;;;;;;;;;;;;;;;5016413;28;6823;-65
2023/01/13 13:02:34;;;;;;;;;;;;;;;;;;5016228;28;7143;-65
2023/01/13 13:08:17;;;;;;;;;;;;;;;;;;5016330;28;6700;-65
2023/01/13 13:10:58;;;;;;;;;;;;;;;;;;5016658;28;7133;-65
2023/01/13 13:13:43;;;;;;;;;;;;;;;;;;5016365;28;7391;-65
2023/01/13 13:25:22;;;;;;;;;;;;;;;;;;5016102;28;6685;-65
2023/01/13 13:31:02;;;;;;;;;;;;;;;;;;5016164;28;6687;-65
2023/01/13 13:47:50;;;;;;;;;;;;;;;;;;5016242;28;6907;-65
2023/01/13 13:50:19;;;;;;;;;;;;;;;;;;5013514;28;7134;-65
2023/01/13 13:52:53;;;;;;;;;;;;;;;;;;5016065;28;7255;-65
2023/01/13 13:55:25;;;;;;;;;;;;;;;;;;4998007;28;7496;-65
2023/01/13 13:57:52;;;;;;;;;;;;;;;;;;5015643;28;7188;-65
2023/01/13 14:03:34;;;;;;;;;;;;;;;;;;5015224;28;6710;-65
2023/01/13 14:06:02;;;;;;;;;;;;;;;;;;5015525;28;7203;-65
2023/01/13 14:08:32;;;;;;;;;;;;;;;;;;5015257;28;6908;-65
2023/01/13 14:10:58;;;;;;;;;;;;;;;;;;5015341;28;6950;-65
2023/01/13 14:13:23;;;;;;;;;;;;;;;;;;5015338;28;7202;-65
2023/01/13 14:16:18;;;;;;;;;;;;;;;;;;5015309;28;7144;-65
2023/01/13 14:18:46;;;;;;;;;;;;;;;;;;5015254;28;6976;-65
2023/01/13 14:21:29;;;;;;;;;;;;;;;;;;5015258;28;6969;-65
2023/01/13 14:23:59;;;;;;;;;;;;;;;;;;5014986;28;6978;-65
2023/01/13 14:26:27;;;;;;;;;;;;;;;;;;5015496;28;7119;-65
2023/01/13 14:28:54;;;;;;;;;;;;;;;;;;5015228;28;7375;-65
2023/01/13 14:31:21;;;;;;;;;;;;;;;;;;5015201;28;7043;-65
2023/01/13 14:36:50;;;;;;;;;;;;;;;;;;5015246;28;7127;-65
2023/01/13 14:39:23;;;;;;;;;;;;;;;;;;5015128;28;7359;-65
2023/01/13 14:41:49;;;;;;;;;;;;;;;;;;5014894;28;7165;-65
2023/01/13 14:47:18;;;;;;;;;;;;;;;;;;5014718;28;6801;-65
2023/01/13 14:49:55;;;;;;;;;;;;;;;;;;5015006;28;7161;-65
2023/01/13 14:52:23;;;;;;;;;;;;;;;;;;5014659;28;7360;-65
2023/01/13 14:55:12;;;;;;;;;;;;;;;;;;5014663;28;8227;-65
2023/01/13 14:57:40;;;;;;;;;;;;;;;;;;5014835;28;7191;-65
2023/01/13 15:00:32;;;;;;;;;;;;;;;;;;5014922;28;7425;-65
2023/01/13 15:02:58;;;;;;;;;;;;;;;;;;5013152;28;7262;-65
2023/01/13 15:05:34;;;;;;;;;;;;;;;;;;5015040;28;7115;-65
2023/01/13 15:08:04;;;;;;;;;;;;;;;;;;5014838;28;7064;-65
2023/01/13 15:13:38;;;;;;;;;;;;;;;;;;5015115;28;6747;-65
2023/01/13 15:19:09;;;;;;;;;;;;;;;;;;5018502;28;6916;-65
2023/01/13 15:24:37;;;;;;;;;;;;;;;;;;5018279;28;6692;-65
2023/01/13 15:27:13;;;;;;;;;;;;;;;;;;5000671;28;8686;-65
2023/01/13 15:29:38;;;;;;;;;;;;;;;;;;5018179;28;7159;-65
2023/01/13 15:32:04;;;;;;;;;;;;;;;;;;5017865;28;7940;-65
2023/01/13 15:34:52;;;;;;;;;;;;;;;;;;5018325;28;7025;-65
2023/01/13 15:37:18;;;;;;;;;;;;;;;;;;5018256;28;6968;-65
2023/01/13 15:39:46;;;;;;;;;;;;;;;;;;5018281;28;7148;-65
2023/01/13 15:48:22;;;;;;;;;;;;;;;;;;5018463;28;6675;-65
2023/01/13 15:50:47;;;;;;;;;;;;;;;;;;5018591;28;7215;-65
2023/01/13 15:53:13;;;;;;;;;;;;;;;;;;5017785;28;7211;-65
2023/01/13 16:04:59;;;;;;;;;;;;;;;;;;5017609;28;6680;-65
2023/01/13 16:10:27;;;;;;;;;;;;;;;;;;5013685;28;7089;-65
2023/01/13 16:13:08;;;;;;;;;;;;;;;;;;5017522;28;7098;-65
2023/01/13 16:15:35;;;;;;;;;;;;;;;;;;5017647;28;7184;-65
2023/01/13 16:21:00;;;;;;;;;;;;;;;;;;4998811;28;6961;-65
2023/01/13 16:23:34;;;;;;;;;;;;;;;;;;5000798;28;7363;-65
2023/01/13 16:25:59;;;;;;;;;;;;;;;;;;5015485;28;7360;-65
2023/01/13 16:28:27;;;;;;;;;;;;;;;;;;5017259;28;7166;-65
2023/01/13 16:33:55;;;;;;;;;;;;;;;;;;5017036;28;6974;-65
2023/01/13 16:36:21;;;;;;;;;;;;;;;;;;5017268;28;6933;-65
2023/01/13 16:38:48;;;;;;;;;;;;;;;;;;5017714;28;7119;-65
2023/01/13 16:41:29;;;;;;;;;;;;;;;;;;5017060;28;7408;-65
2023/01/13 16:43:55;;;;;;;;;;;;;;;;;;5017096;28;7161;-65
2023/01/13 16:46:25;;;;;;;;;;;;;;;;;;5017096;28;7174;-65
2023/01/13 16:51:54;;;;;;;;;;;;;;;;;;5016660;28;6692;-65
2023/01/13 16:57:22;;;;;;;;;;;;;;;;;;5016667;28;6958;-65
2023/01/13 17:02:50;;;;;;;;;;;;;;;;;;5016593;28;6709;-65
2023/01/13 17:05:16;;;;;;;;;;;;;;;;;;5016656;28;6926;-65
2023/01/13 17:10:46;;;;;;;;;;;;;;;;;;5016497;28;6898;-65
2023/01/13 17:13:19;;;;;;;;;;;;;;;;;;5016469;28;7232;-65
2023/01/13 17:15:45;;;;;;;;;;;;;;;;;;5016452;28;7409;-65
2023/01/13 17:18:12;;;;;;;;;;;;;;;;;;5017061;28;7267;-65
2023/01/13 17:21:09;;;;;;;;;;;;;;;;;;5016462;28;7204;-66
2023/01/13 17:23:35;;;;;;;;;;;;;;;;;;5016258;28;7050;-65
2023/01/13 17:26:00;;;;;;;;;;;;;;;;;;5016176;28;7149;-65
2023/01/13 17:28:44;;;;;;;;;;;;;;;;;;5016258;28;7163;-65
2023/01/13 17:31:09;;;;;;;;;;;;;;;;;;5015972;28;7406;-65
2023/01/13 17:33:36;;;;;;;;;;;;;;;;;;5015848;28;7223;-65
2023/01/13 17:36:02;;;;;;;;;;;;;;;;;;5015708;28;7093;-65
2023/01/13 17:38:29;;;;;;;;;;;;;;;;;;5015917;28;7107;-65
2023/01/13 17:40:59;;;;;;;;;;;;;;;;;;5015879;28;7333;-65
2023/01/13 17:46:28;;;;;;;;;;;;;;;;;;5015751;28;6916;-65
2023/01/13 17:48:53;;;;;;;;;;;;;;;;;;5015899;28;7011;-65
2023/01/13 17:51:24;;;;;;;;;;;;;;;;;;5015163;28;7162;-65
2023/01/13 17:53:52;;;;;;;;;;;;;;;;;;5015731;28;7136;-65
2023/01/13 17:56:17;;;;;;;;;;;;;;;;;;5015601;28;7120;-65
2023/01/13 17:59:03;;;;;;;;;;;;;;;;;;5015727;28;7369;-65
2023/01/13 18:01:31;;;;;;;;;;;;;;;;;;5015398;28;7412;-65
2023/01/13 18:04:08;;;;;;;;;;;;;;;;;;5015609;28;7245;-65
2023/01/13 18:06:33;;;;;;;;;;;;;;;;;;5015772;28;7168;-65
2023/01/13 18:08:59;;;;;;;;;;;;;;;;;;5015339;28;6933;-65
2023/01/13 18:11:26;;;;;;;;;;;;;;;;;;5014969;28;7201;-65
2023/01/13 18:16:54;;;;;;;;;;;;;;;;;;5015097;28;6910;-65
2023/01/13 18:27:40;;;;;;;;;;;;;;;;;;5015275;28;7013;-65
2023/01/13 18:30:06;;;;;;;;;;;;;;;;;;5015127;28;7405;-65
2023/01/13 18:32:33;;;;;;;;;;;;;;;;;;5014892;28;7128;-65
2023/01/13 18:46:57;;;;;;;;;;;;;;;;;;5015452;28;6679;-65
2023/01/13 18:49:36;;;;;;;;;;;;;;;;;;5013939;28;7325;-65
2023/01/13 18:52:01;;;;;;;;;;;;;;;;;;5014679;28;7245;-65
2023/01/13 18:57:30;;;;;;;;;;;;;;;;;;5014695;28;6967;-65
2023/01/13 18:59:56;;;;;;;;;;;;;;;;;;5014569;28;7345;-65
2023/01/13 19:02:25;;;;;;;;;;;;;;;;;;5014802;28;6949;-65
2023/01/13 19:04:51;;;;;;;;;;;;;;;;;;5014882;28;7161;-65
2023/01/13 19:07:22;;;;;;;;;;;;;;;;;;5014831;28;7123;-65
2023/01/13 19:09:50;;;;;;;;;;;;;;;;;;5007717;28;6971;-65
2023/01/13 19:12:24;;;;;;;;;;;;;;;;;;4994981;28;6935;-65
2023/01/13 19:14:51;;;;;;;;;;;;;;;;;;4977771;28;7207;-65
2023/01/13 19:17:16;;;;;;;;;;;;;;;;;;4995075;28;6808;-65
2023/01/13 19:19:43;;;;;;;;;;;;;;;;;;4994947;28;7056;-65
2023/01/13 19:22:14;;;;;;;;;;;;;;;;;;4994529;28;7377;-65
2023/01/13 19:27:42;;;;;;;;;;;;;;;;;;4994628;28;6710;-65
2023/01/13 19:30:08;;;;;;;;;;;;;;;;;;4983612;28;7137;-65
2023/01/13 19:32:50;;;;;;;;;;;;;;;;;;4975299;28;7368;-65
2023/01/13 19:35:16;;;;;;;;;;;;;;;;;;4975216;28;7206;-65
2023/01/13 19:37:43;;;;;;;;;;;;;;;;;;4975283;28;7763;-65
2023/01/13 19:40:44;;;;;;;;;;;;;;;;;;4975583;28;7384;-65
2023/01/13 19:45:53;;;;;;;;;;;;;;;;;;4975872;28;6807;-65
2023/01/13 19:48:20;;;;;;;;;;;;;;;;;;4975088;28;6927;-65
2023/01/13 19:50:59;;;;;;;;;;;;;;;;;;4972270;28;7330;-65
2023/01/13 19:53:26;;;;;;;;;;;;;;;;;;4975169;28;7153;-65
2023/01/13 19:55:58;;;;;;;;;;;;;;;;;;4958509;28;7178;-65
2023/01/13 19:58:28;;;;;;;;;;;;;;;;;;4975025;28;7909;-65
2023/01/13 20:07:04;;;;;;;;;;;;;;;;;;4978489;28;6681;-65
2023/01/13 20:09:30;;;;;;;;;;;;;;;;;;4978657;28;7516;-65
2023/01/13 20:11:56;;;;;;;;;;;;;;;;;;4964648;28;7117;-65
2023/01/13 20:14:49;;;;;;;;;;;;;;;;;;4959160;28;7173;-65
2023/01/13 20:20:25;;;;;;;;;;;;;;;;;;4958842;28;7389;-65
2023/01/13 20:23:00;;;;;;;;;;;;;;;;;;4959030;28;7404;-65
2023/01/13 20:25:27;;;;;;;;;;;;;;;;;;4959253;28;7237;-65
2023/01/13 20:30:56;;;;;;;;;;;;;;;;;;4958844;28;6920;-65
2023/01/13 20:33:21;;;;;;;;;;;;;;;;;;4958376;28;7139;-65
2023/01/13 20:39:07;;;;;;;;;;;;;;;;;;4958591;28;7025;-65
2023/01/13 20:44:16;;;;;;;;;;;;;;;;;;4958808;28;6912;-65
2023/01/13 20:46:44;;;;;;;;;;;;;;;;;;4958444;28;7135;-65
2023/01/13 20:52:31;;;;;;;;;;;;;;;;;;4958315;28;6692;-64
2023/01/13 20:54:57;;;;;;;;;;;;;;;;;;4958492;28;7245;-65
2023/01/13 20:57:22;;;;;;;;;;;;;;;;;;4958490;28;7153;-64
2023/01/13 20:59:48;;;;;;;;;;;;;;;;;;4958471;28;7158;-65
2023/01/13 21:02:15;;;;;;;;;;;;;;;;;;4958410;28;7030;-67
2023/01/13 21:04:41;;;;;;;;;;;;;;;;;;4966934;28;7206;-67
2023/01/13 21:07:07;;;;;;;;;;;;;;;;;;4977551;28;6990;-67
2023/01/13 21:15:16;;;;;;;;;;;;;;;;;;4996984;28;6805;-67
2023/01/13 21:20:33;;;;;;;;;;;;;;;;;;4996794;28;7038;-67
2023/01/13 21:23:03;;;;;;;;;;;;;;;;;;4996560;28;7393;-67
2023/01/13 21:26:00;;;;;;;;;;;;;;;;;;4996292;28;8082;-67
2023/01/13 21:28:26;;;;;;;;;;;;;;;;;;4996600;28;7122;-67
2023/01/13 21:30:51;;;;;;;;;;;;;;;;;;4996434;28;6934;-67
2023/01/13 21:33:17;;;;;;;;;;;;;;;;;;4996156;28;7156;-67
2023/01/13 22:00:16;;;;;;;;;;;;;;;;;;4976343;28;7064;-68
2023/01/13 22:02:42;;;;;;;;;;;;;;;;;;4976738;28;6946;-68
2023/01/13 22:05:09;;;;;;;;;;;;;;;;;;4976329;28;6996;-68
2023/01/13 22:07:36;;;;;;;;;;;;;;;;;;4976589;28;7069;-68
2023/01/13 22:15:48;;;;;;;;;;;;;;;;;;4976743;28;6795;-68
2023/01/13 22:18:31;;;;;;;;;;;;;;;;;;4976345;28;7410;-68
2023/01/13 22:20:59;;;;;;;;;;;;;;;;;;4976306;28;7333;-68
2023/01/13 22:23:25;;;;;;;;;;;;;;;;;;4976921;28;7180;-68
2023/01/13 22:26:08;;;;;;;;;;;;;;;;;;4977763;28;7102;-68
2023/01/13 22:28:39;;;;;;;;;;;;;;;;;;4988218;28;7208;-68
2023/01/13 22:37:21;;;;;;;;;;;;;;;;;;4975857;28;6927;-68
2023/01/13 22:39:47;;;;;;;;;;;;;;;;;;4975987;28;6965;-68
2023/01/13 22:45:16;;;;;;;;;;;;;;;;;;4975646;28;6928;-68
2023/01/13 22:47:51;;;;;;;;;;;;;;;;;;4976999;28;7569;-68
2023/01/13 22:50:19;;;;;;;;;;;;;;;;;;4993306;28;6984;-68
2023/01/13 22:52:58;;;;;;;;;;;;;;;;;;4986686;28;7138;-68
2023/01/13 22:55:23;;;;;;;;;;;;;;;;;;4976851;28;8731;-68
2023/01/13 22:58:25;;;;;;;;;;;;;;;;;;4994919;28;6942;-68
2023/01/13 23:00:51;;;;;;;;;;;;;;;;;;4988506;28;8919;-68
2023/01/13 23:03:23;;;;;;;;;;;;;;;;;;4989927;28;7002;-68
2023/01/13 23:05:54;;;;;;;;;;;;;;;;;;4995146;28;7217;-68
2023/01/13 23:08:34;;;;;;;;;;;;;;;;;;4994986;28;7042;-68
2023/01/13 23:11:14;;;;;;;;;;;;;;;;;;4994899;28;7271;-69
2023/01/13 23:13:42;;;;;;;;;;;;;;;;;;4994651;28;7460;-69
2023/01/13 23:16:19;;;;;;;;;;;;;;;;;;4995100;28;7248;-68
2023/01/13 23:18:47;;;;;;;;;;;;;;;;;;4995126;28;7170;-68
2023/01/13 23:21:27;;;;;;;;;;;;;;;;;;4995129;28;7085;-68
2023/01/13 23:24:14;;;;;;;;;;;;;;;;;;4995170;28;7191;-68
2023/01/13 23:26:40;;;;;;;;;;;;;;;;;;4995009;28;7104;-68
2023/01/13 23:29:39;;;;;;;;;;;;;;;;;;4994664;28;6960;-68
2023/01/13 23:32:05;;;;;;;;;;;;;;;;;;4995268;28;7851;-68
2023/01/13 23:37:33;;;;;;;;;;;;;;;;;;4998492;28;6935;-68
2023/01/13 23:43:02;;;;;;;;;;;;;;;;;;4998355;28;6859;-68
2023/01/13 23:45:27;;;;;;;;;;;;;;;;;;4998469;28;7185;-68
2023/01/13 23:47:54;;;;;;;;;;;;;;;;;;4998613;28;7163;-68
2023/01/13 23:50:20;;;;;;;;;;;;;;;;;;4998284;28;6956;-68
2023/01/13 23:55:54;;;;;;;;;;;;;;;;;;4998128;28;6984;-68
2023/01/13 23:58:20;;;;;;;;;;;;;;;;;;4980755;28;8417;-68
